createdAt,value
2019-06-10T00:01:57.428Z,3.27
2019-06-10T00:04:05.166Z,5.80
2019-06-10T00:06:07.049Z,6.22
2019-06-10T00:08:12.301Z,4.10
2019-06-10T00:10:16.350Z,4.42
2019-06-10T00:12:20.991Z,5.47
2019-06-10T00:14:24.690Z,3.67
2019-06-10T00:16:28.169Z,7.87
2019-06-10T00:18:41.532Z,7.25
2019-06-10T00:20:37.136Z,5.22
2019-06-10T00:22:41.025Z,5.42
2019-06-10T00:24:44.891Z,4.53
2019-06-10T00:26:50.865Z,4.12
2019-06-10T00:28:53.931Z,4.40
2019-06-10T00:30:58.194Z,5.35
2019-06-10T00:33:04.906Z,9.13
2019-06-10T00:35:10.069Z,5.17
2019-06-10T00:37:14.974Z,7.70
2019-06-10T00:39:21.922Z,4.72
2019-06-10T00:41:24.642Z,5.72
2019-06-10T00:43:30.332Z,5.08
2019-06-10T00:45:33.725Z,5.70
2019-06-10T00:49:41.380Z,4.83
2019-06-10T00:51:44.928Z,5.53
2019-06-10T00:53:51.153Z,4.20
2019-06-10T00:55:54.325Z,3.83
2019-06-10T00:57:58.224Z,4.92
2019-06-10T01:00:12.581Z,8.60
2019-06-10T01:02:08.184Z,4.83
2019-06-10T01:04:16.094Z,5.30
2019-06-10T01:06:21.117Z,6.92
2019-06-10T01:08:24.206Z,7.15
2019-06-10T01:10:27.993Z,9.63
2019-06-10T01:12:31.707Z,3.95
2019-06-10T01:14:35.341Z,6.25
2019-06-10T01:16:41.169Z,7.83
2019-06-10T01:18:44.745Z,5.45
2019-06-10T01:20:48.645Z,6.42
2019-06-10T01:22:52.447Z,4.35
2019-06-10T01:24:56.267Z,7.65
2019-06-10T01:27:01.238Z,4.75
2019-06-10T01:29:05.979Z,10.90
2019-06-10T01:33:16.409Z,3.25
2019-06-10T01:35:21.527Z,6.60
2019-06-10T01:37:25.097Z,4.75
2019-06-10T01:39:30.874Z,3.20
2019-06-10T01:41:34.463Z,6.67
2019-06-10T01:43:40.661Z,6.15
2019-06-10T01:45:43.801Z,6.97
2019-06-10T01:47:47.604Z,12.55
2019-06-10T01:49:51.789Z,6.75
2019-06-10T01:51:55.819Z,4.97
2019-06-10T01:54:01.327Z,6.58
2019-06-10T01:56:04.987Z,6.53
2019-06-10T01:58:10.661Z,6.87
2019-06-10T02:00:22.082Z,5.83
2019-06-10T02:02:23.862Z,9.23
2019-06-10T02:04:28.165Z,3.50
2019-06-10T02:06:31.815Z,5.42
2019-06-10T02:08:35.764Z,4.83
2019-06-10T02:10:41.389Z,6.58
2019-06-10T02:12:44.803Z,10.80
2019-06-10T02:14:50.805Z,6.25
2019-06-10T02:16:54.556Z,6.50
2019-06-10T02:19:01.458Z,6.08
2019-06-10T02:21:03.288Z,7.72
2019-06-10T02:23:06.854Z,4.40
2019-06-10T02:25:12.202Z,4.58
2019-06-10T02:27:17.443Z,4.28
2019-06-10T02:29:22.217Z,9.75
2019-06-10T02:31:35.446Z,6.87
2019-06-10T02:33:36.452Z,5.67
2019-06-10T02:35:44.418Z,9.38
2019-06-10T02:37:44.359Z,5.58
2019-06-10T02:39:48.673Z,6.75
2019-06-10T02:41:55.249Z,11.93
2019-06-10T02:43:59.135Z,18.98
2019-06-10T02:46:04.346Z,8.75
2019-06-10T02:48:07.882Z,13.20
2019-06-10T02:50:15.008Z,8.28
2019-06-10T02:52:23.167Z,6.67
2019-06-10T02:54:31.297Z,12.25
2019-06-10T02:56:36.204Z,8.28
2019-06-10T02:58:39.311Z,12.20
2019-06-10T03:00:48.075Z,8.13
2019-06-10T03:02:47.593Z,13.43
2019-06-10T03:04:53.594Z,15.13
2019-06-10T03:06:56.561Z,8.88
2019-06-10T03:09:03.453Z,8.35
2019-06-10T03:11:07.503Z,10.43
2019-06-10T03:13:12.679Z,8.23
2019-06-10T03:15:17.874Z,9.60
2019-06-10T03:17:25.850Z,8.40
2019-06-10T03:19:42.183Z,10.13
2019-06-10T03:21:34.248Z,9.08
2019-06-10T03:23:38.107Z,5.08
2019-06-10T03:25:42.293Z,13.95
2019-06-10T03:27:46.331Z,7.22
2019-06-10T03:29:49.932Z,6.85
2019-06-10T03:31:55.316Z,9.98
2019-06-10T03:33:58.976Z,7.20
2019-06-10T03:36:03.468Z,11.93
2019-06-10T03:38:07.492Z,8.23
2019-06-10T03:40:13.017Z,7.60
2019-06-10T03:42:17.250Z,10.95
2019-06-10T03:44:23.524Z,11.55
2019-06-10T03:46:27.286Z,10.63
2019-06-10T03:48:32.925Z,7.62
2019-06-10T03:50:37.057Z,11.43
2019-06-10T03:52:42.933Z,9.68
2019-06-10T03:54:46.400Z,8.78
2019-06-10T03:56:52.100Z,7.12
2019-06-10T03:58:55.756Z,8.68
2019-06-10T04:00:59.549Z,7.42
2019-06-10T04:03:03.367Z,12.20
2019-06-10T04:05:07.365Z,10.45
2019-06-10T04:07:14.129Z,13.18
2019-06-10T04:09:17.421Z,11.10
2019-06-10T04:11:24.051Z,10.28
2019-06-10T04:13:28.355Z,14.30
2019-06-10T04:15:32.689Z,8.98
2019-06-10T04:17:36.361Z,8.15
2019-06-10T04:19:41.972Z,12.33
2019-06-10T04:21:45.361Z,7.37
2019-06-10T04:23:49.258Z,9.43
2019-06-10T04:25:53.072Z,9.35
2019-06-10T04:27:56.549Z,8.60
2019-06-10T04:30:03.096Z,10.23
2019-06-10T04:32:06.622Z,9.70
2019-06-10T04:34:12.250Z,11.20
2019-06-10T04:36:15.655Z,11.25
2019-06-10T04:38:20.969Z,10.88
2019-06-10T04:40:26.658Z,12.00
2019-06-10T04:42:33.017Z,10.13
2019-06-10T04:44:37.110Z,7.28
2019-06-10T04:46:42.806Z,9.70
2019-06-10T04:48:46.458Z,12.40
2019-06-10T04:50:50.263Z,10.40
2019-06-10T04:52:56.716Z,13.22
2019-06-10T04:55:02.549Z,12.53
2019-06-10T04:57:06.073Z,7.40
2019-06-10T04:59:12.328Z,7.35
2019-06-10T05:01:15.426Z,11.75
2019-06-10T05:03:19.226Z,8.58
2019-06-10T05:05:24.989Z,12.90
2019-06-10T05:07:32.582Z,7.97
2019-06-10T05:09:34.123Z,8.75
2019-06-10T05:11:38.103Z,10.55
2019-06-10T05:13:42.961Z,10.70
2019-06-10T05:15:47.149Z,7.62
2019-06-10T05:17:52.694Z,11.68
2019-06-10T05:19:56.148Z,8.30
2019-06-10T05:21:59.993Z,8.40
2019-06-10T05:24:03.462Z,10.25
2019-06-10T05:26:07.293Z,15.58
2019-06-10T05:28:12.263Z,13.13
2019-06-10T05:30:16.386Z,6.40
2019-06-10T05:32:22.499Z,10.08
2019-06-10T05:34:27.202Z,16.97
2019-06-10T05:36:34.733Z,7.67
2019-06-10T05:38:37.120Z,8.90
2019-06-10T05:42:46.100Z,10.95
2019-06-10T05:44:49.588Z,11.45
2019-06-10T05:46:53.405Z,10.90
2019-06-10T05:48:57.198Z,11.68
2019-06-10T05:51:03.814Z,9.18
2019-06-10T05:53:06.552Z,13.55
2019-06-10T05:55:12.098Z,10.85
2019-06-10T05:57:15.831Z,10.78
2019-06-10T05:59:19.690Z,7.37
2019-06-10T06:01:24.279Z,10.63
2019-06-10T06:03:29.934Z,9.85
2019-06-10T06:05:36.121Z,9.65
2019-06-10T06:07:38.999Z,13.58
2019-06-10T06:09:42.737Z,17.12
2019-06-10T06:11:46.810Z,12.40
2019-06-10T06:13:52.223Z,9.23
2019-06-10T06:15:55.974Z,9.63
2019-06-10T06:18:09.230Z,12.53
2019-06-10T06:20:07.458Z,13.03
2019-06-10T06:22:12.982Z,12.35
2019-06-10T06:24:17.924Z,9.03
2019-06-10T06:26:23.553Z,11.85
2019-06-10T06:28:27.955Z,12.75
2019-06-10T06:30:34.433Z,14.35
2019-06-10T06:32:38.084Z,12.63
2019-06-10T06:34:43.133Z,7.20
2019-06-10T06:36:47.995Z,14.83
2019-06-10T06:38:53.122Z,14.30
2019-06-10T06:40:57.363Z,19.45
2019-06-10T06:43:02.750Z,8.35
2019-06-10T06:45:06.988Z,12.70
2019-06-10T06:47:13.059Z,8.95
2019-06-10T06:49:16.355Z,8.20
2019-06-10T06:51:35.492Z,12.80
2019-06-10T06:53:33.089Z,8.93
2019-06-10T06:55:33.338Z,12.50
2019-06-10T06:57:37.328Z,10.78
2019-06-10T06:59:43.192Z,7.50
2019-06-10T07:01:47.351Z,9.30
2019-06-10T07:03:53.583Z,9.80
2019-06-10T07:05:56.908Z,15.03
2019-06-10T07:08:02.518Z,8.83
2019-06-10T07:10:07.692Z,12.07
2019-06-10T07:12:13.063Z,11.00
2019-06-10T07:14:18.664Z,14.63
2019-06-10T07:16:23.103Z,8.75
2019-06-10T07:18:27.080Z,8.60
2019-06-10T07:20:33.255Z,8.98
2019-06-10T07:22:37.003Z,11.50
2019-06-10T07:24:46.354Z,11.12
2019-06-10T07:26:52.155Z,12.23
2019-06-10T07:28:53.757Z,9.88
2019-06-10T07:30:57.905Z,9.75
2019-06-10T07:33:02.969Z,13.03
2019-06-10T07:35:07.055Z,8.13
2019-06-10T07:37:12.918Z,9.90
2019-06-10T07:39:15.755Z,10.55
2019-06-10T07:41:19.581Z,9.63
2019-06-10T07:43:23.240Z,13.60
2019-06-10T07:45:27.161Z,13.30
2019-06-10T07:47:32.689Z,9.28
2019-06-10T07:49:39.173Z,9.33
2019-06-10T07:51:46.105Z,10.35
2019-06-10T07:53:48.377Z,10.90
2019-06-10T07:55:53.583Z,8.08
2019-06-10T07:57:57.664Z,11.73
2019-06-10T08:00:03.151Z,10.72
2019-06-10T08:02:07.539Z,10.68
2019-06-10T08:04:12.082Z,11.48
2019-06-10T08:06:16.158Z,10.03
2019-06-10T08:08:19.946Z,10.78
2019-06-10T08:10:23.759Z,9.18
2019-06-10T08:12:27.556Z,8.03
2019-06-10T08:14:32.999Z,13.72
2019-06-10T08:16:37.862Z,11.48
2019-06-10T08:19:14.421Z,11.65
2019-06-10T08:20:49.115Z,11.85
2019-06-10T08:22:57.631Z,10.55
2019-06-10T08:24:58.462Z,8.03
2019-06-10T08:27:02.769Z,10.25
2019-06-10T08:29:06.779Z,8.95
2019-06-10T08:31:12.325Z,10.90
2019-06-10T08:33:16.243Z,7.53
2019-06-10T08:35:32.769Z,16.20
2019-06-10T08:37:25.671Z,10.25
2019-06-10T08:39:29.591Z,10.88
2019-06-10T08:41:33.115Z,10.40
2019-06-10T08:43:36.974Z,13.60
2019-06-10T08:45:43.619Z,8.95
2019-06-10T08:47:47.335Z,13.70
2019-06-10T08:49:53.105Z,12.47
2019-06-10T08:51:57.233Z,9.70
2019-06-10T08:54:02.425Z,11.75
2019-06-10T08:56:06.133Z,13.85
2019-06-10T08:58:10.046Z,8.80
2019-06-10T09:00:15.546Z,14.53
2019-06-10T09:02:19.392Z,15.13
2019-06-10T09:04:23.205Z,11.83
2019-06-10T09:06:27.096Z,9.43
2019-06-10T09:08:32.570Z,9.80
2019-06-10T09:10:36.101Z,8.85
2019-06-10T09:12:41.268Z,9.90
2019-06-10T09:14:48.067Z,13.08
2019-06-10T09:16:54.060Z,7.72
2019-06-10T09:18:56.580Z,12.00
2019-06-10T09:21:02.303Z,11.43
2019-06-10T09:23:18.156Z,8.10
2019-06-10T09:25:12.374Z,11.33
2019-06-10T09:27:15.930Z,13.55
2019-06-10T09:29:22.173Z,12.28
2019-06-10T09:31:25.454Z,13.78
2019-06-10T09:33:29.004Z,9.00
2019-06-10T09:35:32.821Z,14.63
2019-06-10T09:37:37.039Z,8.68
2019-06-10T09:39:42.087Z,14.03
2019-06-10T09:41:55.408Z,14.60
2019-06-10T09:43:56.697Z,11.22
2019-06-10T09:45:57.241Z,11.05
2019-06-10T09:48:03.930Z,14.70
2019-06-10T09:50:12.274Z,12.85
2019-06-10T09:52:16.349Z,10.88
2019-06-10T09:56:33.149Z,9.25
2019-06-10T09:58:37.393Z,11.05
2019-06-10T10:00:47.318Z,14.35
2019-06-10T10:02:52.166Z,11.05
2019-06-10T10:04:58.269Z,11.90
2019-06-10T10:07:03.039Z,8.93
2019-06-10T10:09:06.838Z,11.38
2019-06-10T10:11:13.012Z,9.10
2019-06-10T10:13:16.744Z,18.77
2019-06-10T10:15:27.523Z,12.25
2019-06-10T10:17:26.047Z,10.13
2019-06-10T10:19:29.549Z,12.15
2019-06-10T10:21:33.104Z,13.15
2019-06-10T10:23:52.472Z,13.77
2019-06-10T10:25:46.254Z,12.10
2019-06-10T10:27:51.325Z,13.98
2019-06-10T10:29:57.123Z,11.03
2019-06-10T10:32:02.639Z,12.85
2019-06-10T10:34:05.745Z,11.45
2019-06-10T10:36:09.573Z,13.40
2019-06-10T10:38:14.423Z,9.25
2019-06-10T10:40:18.514Z,14.78
2019-06-10T10:42:23.664Z,8.23
2019-06-10T10:44:27.707Z,12.20
2019-06-10T10:46:32.615Z,12.55
2019-06-10T10:48:36.609Z,11.20
2019-06-10T10:50:40.502Z,8.93
2019-06-10T10:52:46.363Z,9.95
2019-06-10T10:54:51.294Z,10.68
2019-06-10T10:56:58.858Z,14.85
2019-06-10T10:59:02.147Z,14.93
2019-06-10T11:01:06.172Z,7.53
2019-06-10T11:03:09.649Z,14.50
2019-06-10T11:05:14.991Z,10.13
2019-06-10T11:07:18.801Z,9.85
2019-06-10T11:09:24.237Z,13.70
2019-06-10T11:11:28.373Z,12.68
2019-06-10T11:13:33.779Z,10.53
2019-06-10T11:15:37.715Z,12.90
2019-06-10T11:17:42.654Z,8.00
2019-06-10T11:19:47.333Z,11.65
2019-06-10T11:21:51.580Z,15.68
2019-06-10T11:25:59.809Z,10.28
2019-06-10T11:28:04.225Z,8.35
2019-06-10T11:30:08.302Z,9.38
2019-06-10T11:32:12.226Z,8.98
2019-06-10T11:34:19.038Z,7.22
2019-06-10T11:36:22.758Z,9.40
2019-06-10T11:38:26.903Z,19.05
2019-06-10T11:40:31.602Z,15.38
2019-06-10T11:42:36.040Z,10.35
2019-06-10T11:44:42.380Z,12.47
2019-06-10T11:46:45.135Z,11.35
2019-06-10T11:48:49.006Z,10.25
2019-06-10T11:50:56.732Z,15.60
2019-06-10T11:53:00.738Z,12.13
2019-06-10T11:55:14.867Z,21.25
2019-06-10T11:57:12.501Z,16.85
2019-06-10T11:59:16.604Z,11.73
2019-06-10T12:01:22.659Z,9.88
2019-06-10T12:03:26.048Z,9.45
2019-06-10T12:05:32.458Z,15.80
2019-06-10T12:07:35.592Z,7.95
2019-06-10T12:09:39.382Z,12.47
2019-06-10T12:11:43.913Z,14.43
2019-06-10T12:13:49.049Z,10.45
2019-06-10T12:16:36.372Z,10.48
2019-06-10T12:18:05.263Z,9.23
2019-06-10T12:20:05.272Z,11.55
2019-06-10T12:22:09.169Z,12.73
2019-06-10T12:24:13.093Z,10.93
2019-06-10T12:26:16.979Z,10.05
2019-06-10T12:28:21.047Z,10.32
2019-06-10T12:30:25.200Z,9.40
2019-06-10T12:32:29.853Z,11.53
2019-06-10T12:34:33.832Z,8.13
2019-06-10T12:36:37.307Z,12.35
2019-06-10T12:38:43.396Z,11.90
2019-06-10T12:40:46.668Z,9.90
2019-06-10T12:42:53.070Z,8.68
2019-06-10T12:44:57.212Z,12.58
2019-06-10T12:47:07.462Z,10.65
2019-06-10T12:49:08.613Z,8.88
2019-06-10T12:51:13.465Z,7.87
2019-06-10T12:53:17.737Z,8.90
2019-06-10T12:55:35.595Z,10.53
2019-06-10T12:57:26.782Z,12.13
2019-06-10T12:59:32.485Z,17.85
2019-06-10T13:01:35.862Z,14.03
2019-06-10T13:03:39.996Z,9.38
2019-06-10T13:05:44.382Z,13.05
2019-06-10T13:07:49.511Z,12.53
2019-06-10T13:09:55.535Z,11.33
2019-06-10T13:11:59.854Z,9.75
2019-06-10T13:14:06.571Z,15.58
2019-06-10T13:16:11.409Z,12.35
2019-06-10T13:18:19.157Z,8.68
2019-06-10T13:20:22.931Z,9.98
2019-06-10T13:22:26.365Z,6.25
2019-06-10T13:24:30.144Z,6.45
2019-06-10T13:26:36.096Z,8.60
2019-06-10T13:28:39.519Z,14.30
2019-06-10T13:30:43.427Z,8.80
2019-06-10T13:32:46.981Z,12.28
2019-06-10T13:34:52.625Z,9.08
2019-06-10T13:36:56.727Z,10.68
2019-06-10T13:39:03.970Z,8.90
2019-06-10T13:41:07.963Z,8.18
2019-06-10T13:43:12.483Z,10.25
2019-06-10T13:45:17.912Z,9.30
2019-06-10T13:47:24.915Z,13.03
2019-06-10T13:49:27.372Z,14.20
2019-06-10T13:51:32.409Z,7.92
2019-06-10T13:53:36.819Z,10.70
2019-06-10T13:55:40.724Z,10.38
2019-06-10T13:57:45.486Z,10.20
2019-06-10T13:59:49.123Z,7.30
2019-06-10T14:01:53.284Z,9.27
2019-06-10T14:03:57.265Z,10.85
2019-06-10T14:06:11.334Z,11.33
2019-06-10T14:08:08.973Z,8.98
2019-06-10T14:10:17.820Z,8.85
2019-06-10T14:12:17.875Z,13.25
2019-06-10T14:16:25.718Z,7.83
2019-06-10T14:18:29.607Z,14.67
2019-06-10T14:20:36.612Z,10.65
2019-06-10T14:22:38.978Z,8.20
2019-06-10T14:24:42.866Z,13.62
2019-06-10T14:26:46.651Z,12.35
2019-06-10T14:28:52.438Z,11.65
2019-06-10T14:30:55.324Z,10.98
2019-06-10T14:32:59.186Z,8.73
2019-06-10T14:35:06.666Z,12.80
2019-06-10T14:37:12.392Z,9.38
2019-06-10T14:39:16.071Z,13.80
2019-06-10T14:41:20.010Z,12.15
2019-06-10T14:43:23.823Z,12.78
2019-06-10T14:45:27.628Z,14.80
2019-06-10T14:47:32.477Z,12.05
2019-06-10T14:49:36.217Z,13.68
2019-06-10T14:51:40.074Z,14.87
2019-06-10T14:53:45.022Z,13.28
2019-06-10T14:55:49.083Z,14.33
2019-06-10T14:57:53.233Z,13.95
2019-06-10T15:01:59.782Z,11.75
2019-06-10T15:04:03.302Z,14.20
2019-06-10T15:06:07.037Z,13.28
2019-06-10T15:08:13.718Z,12.13
2019-06-10T15:10:17.840Z,17.00
2019-06-10T15:12:22.818Z,13.00
2019-06-10T15:14:26.847Z,12.70
2019-06-10T15:16:33.422Z,11.40
2019-06-10T15:18:36.256Z,18.23
2019-06-10T15:20:42.812Z,14.90
2019-06-10T15:22:47.929Z,13.98
2019-06-10T15:24:53.240Z,10.58
2019-06-10T15:27:09.135Z,10.72
2019-06-10T15:29:02.857Z,9.68
2019-06-10T15:31:06.746Z,13.28
2019-06-10T15:33:12.947Z,10.50
2019-06-10T15:35:18.646Z,13.38
2019-06-10T15:37:24.175Z,13.38
2019-06-10T15:39:26.841Z,12.90
2019-06-10T15:41:32.279Z,10.43
2019-06-10T15:43:36.368Z,13.53
2019-06-10T15:45:40.335Z,14.78
2019-06-10T15:47:44.249Z,10.18
2019-06-10T15:49:48.144Z,17.62
2019-06-10T15:51:52.570Z,11.08
2019-06-10T15:53:56.661Z,10.10
2019-06-10T15:56:27.163Z,15.00
2019-06-10T15:58:07.028Z,14.65
2019-06-10T16:00:16.168Z,10.00
2019-06-10T16:02:19.251Z,9.58
2019-06-10T16:04:25.711Z,16.42
2019-06-10T16:06:27.565Z,10.23
2019-06-10T16:08:32.466Z,12.80
2019-06-10T16:10:36.621Z,12.00
2019-06-10T16:12:43.621Z,9.80
2019-06-10T16:14:46.002Z,10.85
2019-06-10T16:16:52.427Z,11.68
2019-06-10T16:18:57.040Z,12.58
2019-06-10T16:21:03.941Z,11.93
2019-06-10T16:23:06.380Z,14.63
2019-06-10T16:25:12.563Z,13.20
2019-06-10T16:27:15.907Z,10.23
2019-06-10T16:29:19.740Z,15.90
2019-06-10T16:31:27.196Z,12.88
2019-06-10T16:33:29.810Z,10.68
2019-06-10T16:35:34.760Z,11.88
2019-06-10T16:37:38.637Z,11.38
2019-06-10T16:39:43.115Z,10.55
2019-06-10T16:41:47.114Z,11.68
2019-06-10T16:43:52.221Z,17.75
2019-06-10T16:45:56.300Z,10.58
2019-06-10T16:48:02.253Z,13.13
2019-06-10T16:50:05.976Z,13.30
2019-06-10T16:54:13.016Z,12.65
2019-06-10T16:56:17.735Z,14.98
2019-06-10T16:58:25.362Z,12.78
2019-06-10T17:00:27.697Z,10.88
2019-06-10T17:02:33.021Z,10.20
2019-06-10T17:04:37.173Z,11.15
2019-06-10T17:06:42.189Z,12.05
2019-06-10T17:08:47.059Z,14.93
2019-06-10T17:10:52.700Z,10.88
2019-06-10T17:13:03.164Z,15.32
2019-06-10T17:15:10.103Z,11.90
2019-06-10T17:17:14.078Z,10.72
2019-06-10T17:19:18.647Z,10.88
2019-06-10T17:21:27.968Z,14.05
2019-06-10T17:23:33.143Z,11.40
2019-06-10T17:25:33.862Z,14.58
2019-06-10T17:27:37.832Z,13.75
2019-06-10T17:29:42.676Z,20.08
2019-06-10T17:31:46.662Z,11.45
2019-06-10T17:33:52.986Z,18.57
2019-06-10T17:35:56.340Z,10.00
2019-06-10T17:38:02.605Z,12.00
2019-06-10T17:40:05.891Z,12.37
2019-06-10T17:42:12.221Z,11.80
2019-06-10T17:44:15.014Z,13.15
2019-06-10T17:46:18.877Z,14.87
2019-06-10T17:48:24.276Z,14.05
2019-06-10T17:50:28.265Z,12.37
2019-06-10T17:52:33.181Z,13.18
2019-06-10T17:54:37.822Z,15.03
2019-06-10T17:56:42.660Z,14.13
2019-06-10T17:58:54.254Z,15.32
2019-06-10T18:00:53.132Z,10.88
2019-06-10T18:02:57.344Z,16.05
2019-06-10T18:05:03.122Z,14.47
2019-06-10T18:07:06.181Z,12.63
2019-06-10T18:09:12.254Z,15.57
2019-06-10T18:11:15.626Z,15.18
2019-06-10T18:13:22.810Z,13.98
2019-06-10T18:15:26.214Z,16.25
2019-06-10T18:17:31.153Z,15.68
2019-06-10T18:19:37.340Z,17.15
2019-06-10T18:21:41.175Z,17.57
2019-06-10T18:23:45.028Z,15.38
2019-06-10T18:25:48.602Z,16.82
2019-06-10T18:27:52.479Z,13.67
2019-06-10T18:29:56.522Z,12.15
2019-06-10T18:32:00.471Z,13.35
2019-06-10T18:34:04.513Z,13.60
2019-06-10T18:36:08.009Z,14.73
2019-06-10T18:38:12.717Z,14.03
2019-06-10T18:40:16.750Z,14.55
2019-06-10T18:42:23.383Z,16.50
2019-06-10T18:44:26.858Z,16.23
2019-06-10T18:46:33.321Z,13.90
2019-06-10T18:48:38.163Z,11.10
2019-06-10T18:50:43.227Z,13.05
2019-06-10T18:52:48.257Z,16.00
2019-06-10T18:54:52.889Z,12.40
2019-06-10T18:56:56.898Z,18.65
2019-06-10T18:59:15.622Z,13.20
2019-06-10T19:01:07.889Z,14.23
2019-06-10T19:03:16.421Z,20.77
2019-06-10T19:05:17.429Z,14.93
2019-06-10T19:09:25.941Z,13.17
2019-06-10T19:11:31.037Z,17.40
2019-06-10T19:13:37.136Z,14.60
2019-06-10T19:15:42.628Z,11.93
2019-06-10T19:17:46.812Z,12.33
2019-06-10T19:19:53.096Z,17.87
2019-06-10T19:22:05.506Z,10.72
2019-06-10T19:24:03.255Z,15.65
2019-06-10T19:26:07.433Z,19.12
2019-06-10T19:28:12.273Z,12.65
2019-06-10T19:30:16.680Z,12.28
2019-06-10T19:32:20.739Z,14.78
2019-06-10T19:34:25.049Z,14.33
2019-06-10T19:36:28.985Z,16.12
2019-06-10T19:38:35.180Z,14.50
2019-06-10T19:40:38.408Z,12.65
2019-06-10T19:42:44.484Z,14.90
2019-06-10T19:44:48.194Z,11.43
2019-06-10T19:46:52.591Z,13.28
2019-06-10T19:49:02.649Z,17.10
2019-06-10T19:51:03.089Z,15.78
2019-06-10T19:53:07.183Z,17.70
2019-06-10T19:55:13.232Z,11.08
2019-06-10T19:57:17.427Z,11.12
2019-06-10T19:59:23.088Z,11.33
2019-06-10T20:01:26.943Z,17.60
2019-06-10T20:03:32.936Z,15.80
2019-06-10T20:05:36.346Z,14.58
2019-06-10T20:07:45.817Z,11.60
2019-06-10T20:09:46.370Z,16.87
2019-06-10T20:11:51.342Z,14.80
2019-06-10T20:13:55.287Z,15.63
2019-06-10T20:15:59.791Z,12.47
2019-06-10T20:18:03.730Z,12.73
2019-06-10T20:20:07.366Z,10.98
2019-06-10T20:22:12.208Z,15.53
2019-06-10T20:24:16.222Z,13.90
2019-06-10T20:26:22.418Z,20.90
2019-06-10T20:28:25.657Z,14.28
2019-06-10T20:30:29.374Z,14.70
2019-06-10T20:32:33.756Z,14.28
2019-06-10T20:36:45.260Z,12.93
2019-06-10T20:38:49.375Z,18.65
2019-06-10T20:40:54.802Z,12.25
2019-06-10T20:43:00.250Z,12.53
2019-06-10T20:45:06.112Z,14.98
2019-06-10T20:47:12.229Z,17.07
2019-06-10T20:49:15.346Z,16.97
2019-06-10T20:51:19.401Z,15.23
2019-06-10T20:53:23.392Z,16.67
2019-06-10T20:55:40.169Z,15.03
2019-06-10T20:57:33.078Z,19.15
2019-06-10T21:01:44.419Z,14.85
2019-06-10T21:03:49.900Z,14.85
2019-06-10T21:05:53.653Z,16.23
2019-06-10T21:07:58.768Z,15.32
2019-06-10T21:10:03.059Z,17.23
2019-06-10T21:14:09.592Z,13.45
2019-06-10T21:16:15.113Z,15.25
2019-06-10T21:18:18.924Z,14.95
2019-06-10T21:20:22.711Z,14.85
2019-06-10T21:22:26.575Z,15.50
2019-06-10T21:24:32.360Z,18.23
2019-06-10T21:26:35.627Z,22.52
2019-06-10T21:28:40.563Z,18.52
2019-06-10T21:30:49.630Z,18.52
2019-06-10T21:32:54.291Z,15.75
2019-06-10T21:34:56.184Z,17.95
2019-06-10T21:37:00.122Z,17.42
2019-06-10T21:39:05.504Z,16.23
2019-06-10T21:41:12.501Z,19.10
2019-06-10T21:43:16.307Z,24.43
2019-06-10T21:45:20.121Z,22.60
2019-06-10T21:47:24.036Z,23.75
2019-06-10T21:49:27.553Z,21.27
2019-06-10T21:51:34.446Z,18.87
2019-06-10T21:53:36.968Z,19.82
2019-06-10T21:55:42.426Z,22.48
2019-06-10T21:57:47.148Z,20.75
2019-06-10T21:59:53.591Z,22.32
2019-06-10T22:01:56.522Z,21.95
2019-06-10T22:04:03.733Z,26.27
2019-06-10T22:06:05.914Z,24.07
2019-06-10T22:08:12.567Z,27.02
2019-06-10T22:10:16.807Z,21.87
2019-06-10T22:12:20.423Z,25.35
2019-06-10T22:14:24.336Z,23.77
2019-06-10T22:16:28.213Z,19.92
2019-06-10T22:18:32.764Z,21.87
2019-06-10T22:20:36.267Z,24.37
2019-06-10T22:22:40.120Z,22.52
2019-06-10T22:24:44.687Z,25.35
2019-06-10T22:26:48.926Z,23.25
2019-06-10T22:28:57.170Z,26.93
2019-06-10T22:31:15.169Z,28.23
2019-06-10T22:33:05.995Z,21.20
2019-06-10T22:35:12.076Z,25.37
2019-06-10T22:37:15.435Z,21.90
2019-06-10T22:39:22.362Z,24.15
2019-06-10T22:41:26.423Z,23.30
2019-06-10T22:43:32.089Z,24.47
2019-06-10T22:45:35.785Z,21.42
2019-06-10T22:47:39.679Z,21.37
2019-06-10T22:49:43.894Z,25.85
2019-06-10T22:51:48.259Z,26.93
2019-06-10T22:53:54.705Z,25.82
2019-06-10T22:55:59.250Z,27.50
2019-06-10T22:58:06.228Z,23.80
2019-06-10T23:00:09.163Z,23.20
2019-06-10T23:02:13.270Z,21.37
2019-06-10T23:04:17.158Z,21.97
2019-06-10T23:06:23.234Z,22.27
2019-06-10T23:08:26.627Z,23.92
2019-06-10T23:10:30.521Z,26.20
2019-06-10T23:12:34.425Z,25.30
2019-06-10T23:14:38.234Z,21.40
2019-06-10T23:16:42.725Z,25.57
2019-06-10T23:18:48.821Z,22.80
2019-06-10T23:20:55.810Z,26.15
2019-06-10T23:22:59.158Z,20.70
2019-06-10T23:25:04.906Z,21.57
2019-06-10T23:27:08.828Z,20.68
2019-06-10T23:29:12.727Z,21.90
2019-06-10T23:31:16.625Z,24.82
2019-06-10T23:33:22.719Z,25.27
2019-06-10T23:35:25.972Z,26.77
2019-06-10T23:37:32.077Z,22.52
2019-06-10T23:39:35.001Z,24.80
2019-06-10T23:41:38.802Z,26.75
2019-06-10T23:43:42.607Z,22.30
2019-06-10T23:45:46.433Z,28.67
2019-06-10T23:47:52.932Z,26.65
2019-06-10T23:49:55.867Z,26.65
2019-06-10T23:52:01.057Z,30.20
2019-06-10T23:54:06.306Z,20.15
2019-06-10T23:56:12.695Z,23.75
2019-06-10T23:58:16.006Z,27.25
